Airfield :
LOGIN :

Register | Disclaimer

   EN    FR    IT 

 










Legend :    VFR   Marginal VFR   IFR   Intensive IFR   Very Intensive IFR
Visi :
Ceiling :
>= 8 km
>= 3000ft
5 to 8 km
1000 to 3000 ft
1500m to 5 km
500 to 1000 ft
800 to 1500m
200 to 500 ft
< 800m
< 200 ft
Symbols :   Thunderstorms  Fog  Heavy snow  Heavy precipitations  Wind > 20 kt
SIGMETs :     Misc.  Thunderstorms  Icing  Turbulence  Mountain Waves  Volcanic Ashes






- Airport Elevation : 1504 ft
- IATA code : PNA


LEPP - Noain Pamplona

CURRENT METAR :
  • 271730Z 03004KT 9999 -RA SCT030 BKN050 09/08 Q1020

EXPIRED METARs :
  • 271700Z 33001KT 9999 -RA SCT030 BKN050 10/08 Q1020
  • 271630Z 35003KT 320V030 9999 -RA BKN050 10/08 Q1020
  • 271600Z 02003KT 340V050 9999 BKN050 10/07 Q1020
  • 271530Z 02006KT 9999 -RA FEW030 BKN055 10/08 Q1019
  • 271500Z 01005KT 340V050 9999 -RA FEW030 BKN055 11/07 Q1019

TAF TAF LEPP
Valid from the 27 at 15:00 until the 28 at 15:00 UTC


271400Z 2715/2815 35010KT 9999 SCT040 TX16/2815Z TN05/2806Z
PROB40
TEMPO 2715/2720 35015G25KT
BECMG 2721/2724 VRB03KT
PROB40
TEMPO 2718/2807 3000 -RADZ BKN010



MET'MAP, your aeronautical weather chart ! - Copyright ORBIFLY December 2007 - Disclaimer

ORBIFLY MET'MAP TEAM :

Programming & Development : Alexandra Zaïnal
Concept & original design : Baudouin d'Aumeries
Assistance for programming : Marc-Olivier Méhu
Technical & hardware support : Manuel Goepfert

Contact : metmap@orbifly.com




SOURCES & CREDITS :

   NOAA